Portada
METAR-TAF:

METAR-TAF

Aeroports :

Panaji, Índia

latitud: 15-22-51N, longitud: 073-49-53E, altitud: 56 m

Observació

L'informe es va fer fa 24 minuts, a les 21:00 UTC
Vent 3 kt del Nord
Temperatura 25°C
Humitat 79%
Pressió 1011 hPa
Visibilitat: 4000 m
boirina

METAR: VOGO 172100Z 01003KT 4000 BR NSC 25/21 Q1011 NOSIG

Hora: 02:54 (21:24 UTC)

Pronòstic

L'informe es va fer fa 6 hores i 24 minuts, a les 15:00 UTC
Pronòstic vàlid del 17 a les 18 UTC al 18 a les 03 UTC
Vent 6 kt del Nord-Est
Visibilitat: 5000 m
Escasses núvols a una alçada de 2000 ft
Temporalment
l' 17 a les 22 UTC al 18 a les 03 UTC
Vent 2 kt amb direcció variable
Visibilitat: 2000 m

TAF: VOGO 171500Z 1718/1803 04006KT 5000 BR/HZ FEW020 TEMPO 1722/1803 VRB02KT 2000 BR/HZ

Observacions i pronòstics meteorològics de més de 4000 aeroports (METAR i TAF).

Les estacions disponibles són els punts grocs i vermells al mapa.

Posi el ratolí al punt desitjat per veure el nom de l'estació.

Feu clic per veure les observacions i els pronòstics meteorològics.

Per canviar el mapa: feu clic els botons verds amb una creu de color negre per apropar; al botó verd amb un guió per allunyar la imatge; o en les fletxes verdes per a mapes adjacents.


METAR-TAF: